sensor_id;sensor_type;location;lat;lon;timestamp;pressure;altitude;pressure_sealevel;temperature;humidity
60611;BME280;46439;51.164;13.572;2022-08-19T00:02:10;99221.85;;;22.73;59.82
60611;BME280;46439;51.164;13.572;2022-08-19T00:04:38;99226.35;;;22.72;60.04
60611;BME280;46439;51.164;13.572;2022-08-19T00:07:08;99228.62;;;22.69;60.16
60611;BME280;46439;51.164;13.572;2022-08-19T00:09:36;99227.90;;;22.62;60.17
60611;BME280;46439;51.164;13.572;2022-08-19T00:12:06;99236.98;;;22.60;60.22
60611;BME280;46439;51.164;13.572;2022-08-19T00:14:34;99236.76;;;22.58;60.22
60611;BME280;46439;51.164;13.572;2022-08-19T00:17:04;99243.02;;;22.54;60.45
60611;BME280;46439;51.164;13.572;2022-08-19T00:19:33;99245.41;;;22.50;60.52
60611;BME280;46439;51.164;13.572;2022-08-19T00:22:02;99250.13;;;22.46;60.56
60611;BME280;46439;51.164;13.572;2022-08-19T00:24:31;99256.66;;;22.41;60.62
60611;BME280;46439;51.164;13.572;2022-08-19T00:27:00;99256.89;;;22.37;60.60
60611;BME280;46439;51.164;13.572;2022-08-19T00:29:32;99259.75;;;22.36;60.86
60611;BME280;46439;51.164;13.572;2022-08-19T00:32:00;99266.67;;;22.34;61.01
60611;BME280;46439;51.164;13.572;2022-08-19T00:34:29;99265.24;;;22.33;61.07
60611;BME280;46439;51.164;13.572;2022-08-19T00:36:58;99267.23;;;22.31;61.21
60611;BME280;46439;51.164;13.572;2022-08-19T00:39:27;99260.39;;;22.27;61.25
60611;BME280;46439;51.164;13.572;2022-08-19T00:41:55;99256.23;;;22.21;61.37
60611;BME280;46439;51.164;13.572;2022-08-19T00:44:28;99255.45;;;22.18;61.51
60611;BME280;46439;51.164;13.572;2022-08-19T00:46:56;99264.58;;;22.11;61.36
60611;BME280;46439;51.164;13.572;2022-08-19T00:49:29;99273.95;;;22.05;61.44
60611;BME280;46439;51.164;13.572;2022-08-19T00:52:03;99278.20;;;22.03;61.78
60611;BME280;46439;51.164;13.572;2022-08-19T00:54:32;99281.96;;;22.00;61.75
60611;BME280;46439;51.164;13.572;2022-08-19T00:57:03;99282.36;;;21.98;61.95
60611;BME280;46439;51.164;13.572;2022-08-19T00:59:36;99285.92;;;21.95;62.13
60611;BME280;46439;51.164;13.572;2022-08-19T01:02:07;99283.06;;;21.95;62.20
60611;BME280;46439;51.164;13.572;2022-08-19T01:04:35;99274.55;;;21.97;62.38
60611;BME280;46439;51.164;13.572;2022-08-19T01:07:04;99269.33;;;22.00;62.67
60611;BME280;46439;51.164;13.572;2022-08-19T01:09:33;99259.16;;;22.00;62.75
60611;BME280;46439;51.164;13.572;2022-08-19T01:12:02;99246.30;;;21.98;62.76
60611;BME280;46439;51.164;13.572;2022-08-19T01:14:32;99240.63;;;21.95;62.83
60611;BME280;46439;51.164;13.572;2022-08-19T01:17:01;99240.69;;;21.96;63.04
60611;BME280;46439;51.164;13.572;2022-08-19T01:19:33;99246.23;;;21.96;63.07
60611;BME280;46439;51.164;13.572;2022-08-19T01:22:08;99253.86;;;21.91;63.15
60611;BME280;46439;51.164;13.572;2022-08-19T01:24:43;99268.14;;;21.88;63.23
60611;BME280;46439;51.164;13.572;2022-08-19T01:27:11;99268.41;;;21.88;63.29
60611;BME280;46439;51.164;13.572;2022-08-19T01:29:42;99270.84;;;21.90;63.54
60611;BME280;46439;51.164;13.572;2022-08-19T01:32:13;99267.88;;;21.89;63.72
60611;BME280;46439;51.164;13.572;2022-08-19T01:34:43;99261.70;;;21.88;63.69
60611;BME280;46439;51.164;13.572;2022-08-19T01:37:15;99255.73;;;21.86;63.75
60611;BME280;46439;51.164;13.572;2022-08-19T01:39:44;99253.80;;;21.85;63.92
60611;BME280;46439;51.164;13.572;2022-08-19T01:42:13;99258.96;;;21.87;63.95
60611;BME280;46439;51.164;13.572;2022-08-19T01:44:42;99258.84;;;21.85;64.21
60611;BME280;46439;51.164;13.572;2022-08-19T01:47:10;99267.42;;;21.85;64.26
60611;BME280;46439;51.164;13.572;2022-08-19T01:49:39;99271.38;;;21.84;64.38
60611;BME280;46439;51.164;13.572;2022-08-19T01:52:07;99272.92;;;21.86;64.48
60611;BME280;46439;51.164;13.572;2022-08-19T01:54:36;99266.49;;;21.86;64.72
60611;BME280;46439;51.164;13.572;2022-08-19T01:57:06;99260.73;;;21.88;64.82
60611;BME280;46439;51.164;13.572;2022-08-19T01:59:36;99256.50;;;21.89;64.86
60611;BME280;46439;51.164;13.572;2022-08-19T02:02:07;99256.77;;;21.90;65.03
60611;BME280;46439;51.164;13.572;2022-08-19T02:04:37;99255.67;;;21.90;65.11
60611;BME280;46439;51.164;13.572;2022-08-19T02:07:06;99258.35;;;21.88;65.25
60611;BME280;46439;51.164;13.572;2022-08-19T02:09:36;99257.86;;;21.87;65.18
60611;BME280;46439;51.164;13.572;2022-08-19T02:12:06;99259.52;;;21.89;65.50
60611;BME280;46439;51.164;13.572;2022-08-19T02:14:36;99257.65;;;21.91;65.65
60611;BME280;46439;51.164;13.572;2022-08-19T02:17:05;99260.68;;;21.94;65.74
60611;BME280;46439;51.164;13.572;2022-08-19T02:19:34;99257.98;;;21.93;65.86
60611;BME280;46439;51.164;13.572;2022-08-19T02:22:02;99262.66;;;21.92;65.99
60611;BME280;46439;51.164;13.572;2022-08-19T02:24:31;99262.60;;;21.89;65.97
60611;BME280;46439;51.164;13.572;2022-08-19T02:27:00;99258.02;;;21.89;66.06
60611;BME280;46439;51.164;13.572;2022-08-19T02:29:28;99248.52;;;21.90;66.27
60611;BME280;46439;51.164;13.572;2022-08-19T02:31:56;99236.00;;;21.91;66.38
60611;BME280;46439;51.164;13.572;2022-08-19T02:34:25;99234.24;;;21.90;66.35
60611;BME280;46439;51.164;13.572;2022-08-19T02:36:53;99231.65;;;21.88;66.37
60611;BME280;46439;51.164;13.572;2022-08-19T02:39:24;99240.00;;;21.88;66.72
60611;BME280;46439;51.164;13.572;2022-08-19T02:41:53;99247.04;;;21.88;66.53
60611;BME280;46439;51.164;13.572;2022-08-19T02:44:22;99253.04;;;21.88;66.75
60611;BME280;46439;51.164;13.572;2022-08-19T02:46:50;99255.56;;;21.89;66.89
60611;BME280;46439;51.164;13.572;2022-08-19T02:49:18;99261.08;;;21.96;67.23
60611;BME280;46439;51.164;13.572;2022-08-19T02:51:47;99263.34;;;22.00;67.34
60611;BME280;46439;51.164;13.572;2022-08-19T02:54:16;99262.41;;;22.02;67.43
60611;BME280;46439;51.164;13.572;2022-08-19T02:56:45;99256.70;;;22.06;67.62
60611;BME280;46439;51.164;13.572;2022-08-19T02:59:14;99258.96;;;22.07;67.68
60611;BME280;46439;51.164;13.572;2022-08-19T03:01:43;99272.05;;;22.07;67.71
60611;BME280;46439;51.164;13.572;2022-08-19T03:04:13;99280.17;;;22.07;67.82
60611;BME280;46439;51.164;13.572;2022-08-19T03:06:43;99281.77;;;22.08;67.92
60611;BME280;46439;51.164;13.572;2022-08-19T03:09:12;99278.04;;;22.08;68.03
60611;BME280;46439;51.164;13.572;2022-08-19T03:11:41;99279.25;;;22.09;68.14
60611;BME280;46439;51.164;13.572;2022-08-19T03:14:10;99277.70;;;22.10;68.31
60611;BME280;46439;51.164;13.572;2022-08-19T03:16:45;99274.80;;;22.11;68.31
60611;BME280;46439;51.164;13.572;2022-08-19T03:19:15;99270.73;;;22.12;68.44
60611;BME280;46439;51.164;13.572;2022-08-19T03:21:44;99271.17;;;22.12;68.71
60611;BME280;46439;51.164;13.572;2022-08-19T03:24:13;99271.73;;;22.10;68.60
60611;BME280;46439;51.164;13.572;2022-08-19T03:26:44;99270.35;;;22.10;68.81
60611;BME280;46439;51.164;13.572;2022-08-19T03:29:13;99264.56;;;22.08;68.80
60611;BME280;46439;51.164;13.572;2022-08-19T03:31:43;99260.34;;;22.07;68.86
60611;BME280;46439;51.164;13.572;2022-08-19T03:34:14;99260.43;;;22.03;68.84
60611;BME280;46439;51.164;13.572;2022-08-19T03:36:42;99262.36;;;22.03;69.07
60611;BME280;46439;51.164;13.572;2022-08-19T03:39:11;99261.34;;;21.99;68.88
60611;BME280;46439;51.164;13.572;2022-08-19T03:41:42;99259.33;;;21.98;69.21
60611;BME280;46439;51.164;13.572;2022-08-19T03:44:11;99258.50;;;21.98;69.27
60611;BME280;46439;51.164;13.572;2022-08-19T03:46:39;99269.38;;;21.95;69.18
60611;BME280;46439;51.164;13.572;2022-08-19T03:49:08;99271.78;;;21.93;69.34
60611;BME280;46439;51.164;13.572;2022-08-19T03:51:38;99279.10;;;21.96;69.36
60611;BME280;46439;51.164;13.572;2022-08-19T03:54:09;99271.04;;;21.99;69.65
60611;BME280;46439;51.164;13.572;2022-08-19T03:56:39;99271.70;;;22.00;69.72
60611;BME280;46439;51.164;13.572;2022-08-19T03:59:13;99268.16;;;22.00;69.81
60611;BME280;46439;51.164;13.572;2022-08-19T04:01:42;99275.81;;;21.99;69.95
60611;BME280;46439;51.164;13.572;2022-08-19T04:04:10;99279.61;;;22.00;70.01
60611;BME280;46439;51.164;13.572;2022-08-19T04:06:39;99281.81;;;22.00;69.99
60611;BME280;46439;51.164;13.572;2022-08-19T04:09:11;99284.65;;;21.99;70.01
60611;BME280;46439;51.164;13.572;2022-08-19T04:11:46;99289.98;;;21.98;70.13
60611;BME280;46439;51.164;13.572;2022-08-19T04:14:16;99289.39;;;21.98;70.19
60611;BME280;46439;51.164;13.572;2022-08-19T04:16:47;99287.20;;;22.01;70.40
60611;BME280;46439;51.164;13.572;2022-08-19T04:19:17;99290.13;;;22.06;70.66
60611;BME280;46439;51.164;13.572;2022-08-19T04:21:48;99291.61;;;22.07;70.82
60611;BME280;46439;51.164;13.572;2022-08-19T04:24:18;99288.20;;;22.06;70.73
60611;BME280;46439;51.164;13.572;2022-08-19T04:26:47;99285.11;;;22.03;70.69
60611;BME280;46439;51.164;13.572;2022-08-19T04:29:17;99276.27;;;22.01;70.65
60611;BME280;46439;51.164;13.572;2022-08-19T04:31:47;99270.88;;;21.98;70.82
60611;BME280;46439;51.164;13.572;2022-08-19T04:34:18;99279.39;;;22.00;70.78
60611;BME280;46439;51.164;13.572;2022-08-19T04:36:51;99281.48;;;22.02;71.06
60611;BME280;46439;51.164;13.572;2022-08-19T04:39:22;99285.34;;;22.03;71.08
60611;BME280;46439;51.164;13.572;2022-08-19T04:42:14;99284.84;;;22.02;71.18
60611;BME280;46439;51.164;13.572;2022-08-19T04:45:03;99280.00;;;22.00;71.26
60611;BME280;46439;51.164;13.572;2022-08-19T04:47:32;99288.13;;;22.00;71.41
60611;BME280;46439;51.164;13.572;2022-08-19T04:50:00;99292.05;;;22.03;71.48
60611;BME280;46439;51.164;13.572;2022-08-19T04:52:29;99304.95;;;22.04;71.67
60611;BME280;46439;51.164;13.572;2022-08-19T04:55:00;99307.52;;;22.00;71.52
60611;BME280;46439;51.164;13.572;2022-08-19T04:57:28;99307.84;;;21.92;71.39
60611;BME280;46439;51.164;13.572;2022-08-19T04:59:57;99305.86;;;21.91;71.43
60611;BME280;46439;51.164;13.572;2022-08-19T05:02:26;99305.13;;;21.88;71.54
60611;BME280;46439;51.164;13.572;2022-08-19T05:04:58;99305.34;;;21.84;71.50
60611;BME280;46439;51.164;13.572;2022-08-19T05:07:29;99301.59;;;21.81;71.60
60611;BME280;46439;51.164;13.572;2022-08-19T05:09:57;99290.44;;;21.82;71.74
60611;BME280;46439;51.164;13.572;2022-08-19T05:12:26;99296.48;;;21.83;71.94
60611;BME280;46439;51.164;13.572;2022-08-19T05:14:57;99306.87;;;21.83;71.94
60611;BME280;46439;51.164;13.572;2022-08-19T05:17:26;99315.66;;;21.83;72.12
60611;BME280;46439;51.164;13.572;2022-08-19T05:19:55;99317.36;;;21.81;72.11
60611;BME280;46439;51.164;13.572;2022-08-19T05:22:44;99319.70;;;21.77;72.18
60611;BME280;46439;51.164;13.572;2022-08-19T05:25:15;99322.65;;;21.74;72.05
60611;BME280;46439;51.164;13.572;2022-08-19T05:27:45;99327.34;;;21.76;72.28
60611;BME280;46439;51.164;13.572;2022-08-19T05:30:14;99332.77;;;21.74;72.32
60611;BME280;46439;51.164;13.572;2022-08-19T05:32:43;99326.73;;;21.73;72.39
60611;BME280;46439;51.164;13.572;2022-08-19T05:35:11;99324.63;;;21.74;72.51
60611;BME280;46439;51.164;13.572;2022-08-19T05:37:40;99326.21;;;21.70;72.56
60611;BME280;46439;51.164;13.572;2022-08-19T05:40:10;99328.33;;;21.66;72.46
60611;BME280;46439;51.164;13.572;2022-08-19T05:42:39;99332.71;;;21.63;72.46
60611;BME280;46439;51.164;13.572;2022-08-19T05:45:10;99332.50;;;21.63;72.70
60611;BME280;46439;51.164;13.572;2022-08-19T05:47:38;99341.60;;;21.62;72.85
60611;BME280;46439;51.164;13.572;2022-08-19T05:50:08;99351.44;;;21.63;72.94
60611;BME280;46439;51.164;13.572;2022-08-19T05:52:38;99361.00;;;21.63;72.95
60611;BME280;46439;51.164;13.572;2022-08-19T05:55:08;99366.33;;;21.62;73.06
60611;BME280;46439;51.164;13.572;2022-08-19T05:57:37;99374.67;;;21.65;73.19
60611;BME280;46439;51.164;13.572;2022-08-19T06:00:09;99378.80;;;21.66;73.47
60611;BME280;46439;51.164;13.572;2022-08-19T06:02:40;99386.01;;;21.64;73.42
60611;BME280;46439;51.164;13.572;2022-08-19T06:05:10;99390.21;;;21.63;73.35
60611;BME280;46439;51.164;13.572;2022-08-19T06:07:39;99393.56;;;21.63;73.48
60611;BME280;46439;51.164;13.572;2022-08-19T06:10:10;99396.83;;;21.64;73.52
60611;BME280;46439;51.164;13.572;2022-08-19T06:12:37;99399.02;;;21.64;73.56
60611;BME280;46439;51.164;13.572;2022-08-19T06:15:09;99408.11;;;21.67;73.76
60611;BME280;46439;51.164;13.572;2022-08-19T06:17:37;99411.86;;;21.69;73.91
60611;BME280;46439;51.164;13.572;2022-08-19T06:20:08;99425.48;;;21.68;74.05
60611;BME280;46439;51.164;13.572;2022-08-19T06:22:41;99426.86;;;21.69;74.10
60611;BME280;46439;51.164;13.572;2022-08-19T06:25:11;99440.27;;;21.70;74.13
60611;BME280;46439;51.164;13.572;2022-08-19T06:27:41;99444.96;;;21.68;74.17
60611;BME280;46439;51.164;13.572;2022-08-19T06:30:12;99457.48;;;21.67;74.31
60611;BME280;46439;51.164;13.572;2022-08-19T06:32:40;99460.49;;;21.64;74.13
60611;BME280;46439;51.164;13.572;2022-08-19T06:35:09;99459.10;;;21.62;74.11
60611;BME280;46439;51.164;13.572;2022-08-19T06:37:38;99461.73;;;21.60;74.14
60611;BME280;46439;51.164;13.572;2022-08-19T06:40:09;99466.89;;;21.60;74.28
60611;BME280;46439;51.164;13.572;2022-08-19T06:42:38;99473.92;;;21.61;74.35
60611;BME280;46439;51.164;13.572;2022-08-19T06:45:08;99471.34;;;21.60;74.62
60611;BME280;46439;51.164;13.572;2022-08-19T06:47:36;99474.68;;;21.58;74.49
60611;BME280;46439;51.164;13.572;2022-08-19T06:50:07;99476.73;;;21.60;74.62
60611;BME280;46439;51.164;13.572;2022-08-19T06:52:36;99479.86;;;21.60;74.77
60611;BME280;46439;51.164;13.572;2022-08-19T06:55:06;99483.35;;;21.59;74.73
60611;BME280;46439;51.164;13.572;2022-08-19T06:57:37;99482.61;;;21.60;74.86
60611;BME280;46439;51.164;13.572;2022-08-19T07:00:08;99488.99;;;21.62;75.10
60611;BME280;46439;51.164;13.572;2022-08-19T07:02:41;99492.42;;;21.65;75.15
60611;BME280;46439;51.164;13.572;2022-08-19T07:05:11;99496.20;;;21.65;75.19
60611;BME280;46439;51.164;13.572;2022-08-19T07:07:39;99502.06;;;21.61;75.18
60611;BME280;46439;51.164;13.572;2022-08-19T07:10:11;99505.25;;;21.60;75.28
60611;BME280;46439;51.164;13.572;2022-08-19T07:12:40;99506.99;;;21.60;75.34
60611;BME280;46439;51.164;13.572;2022-08-19T07:15:11;99500.83;;;21.60;75.40
60611;BME280;46439;51.164;13.572;2022-08-19T07:17:39;99502.02;;;21.64;75.52
60611;BME280;46439;51.164;13.572;2022-08-19T07:20:11;99498.95;;;21.64;75.60
60611;BME280;46439;51.164;13.572;2022-08-19T07:22:40;99496.59;;;21.66;75.85
60611;BME280;46439;51.164;13.572;2022-08-19T07:25:12;99502.30;;;21.66;75.63
60611;BME280;46439;51.164;13.572;2022-08-19T07:27:41;99497.16;;;21.67;75.90
60611;BME280;46439;51.164;13.572;2022-08-19T07:30:13;99494.92;;;21.70;76.00
60611;BME280;46439;51.164;13.572;2022-08-19T07:32:42;99491.41;;;21.68;76.16
60611;BME280;46439;51.164;13.572;2022-08-19T07:35:11;99490.09;;;21.69;76.14
60611;BME280;46439;51.164;13.572;2022-08-19T07:37:42;99483.80;;;21.67;76.00
60611;BME280;46439;51.164;13.572;2022-08-19T07:40:13;99482.91;;;21.65;76.12
60611;BME280;46439;51.164;13.572;2022-08-19T07:42:41;99485.58;;;21.61;76.00
60611;BME280;46439;51.164;13.572;2022-08-19T07:45:12;99495.02;;;21.60;76.19
60611;BME280;46439;51.164;13.572;2022-08-19T07:47:40;99501.12;;;21.60;76.31
60611;BME280;46439;51.164;13.572;2022-08-19T07:50:11;99498.63;;;21.58;76.29
60611;BME280;46439;51.164;13.572;2022-08-19T07:52:40;99502.58;;;21.57;76.28
60611;BME280;46439;51.164;13.572;2022-08-19T07:55:16;99505.16;;;21.58;76.40
60611;BME280;46439;51.164;13.572;2022-08-19T07:57:45;99504.33;;;21.56;76.60
60611;BME280;46439;51.164;13.572;2022-08-19T08:00:15;99504.57;;;21.59;76.86
60611;BME280;46439;51.164;13.572;2022-08-19T08:02:46;99505.10;;;21.58;76.78
60611;BME280;46439;51.164;13.572;2022-08-19T08:05:14;99513.07;;;21.58;76.77
60611;BME280;46439;51.164;13.572;2022-08-19T08:08:01;99518.10;;;21.63;77.01
60611;BME280;46439;51.164;13.572;2022-08-19T08:10:49;99520.42;;;21.64;77.13
60611;BME280;46439;51.164;13.572;2022-08-19T08:13:18;99523.86;;;21.66;77.34
60611;BME280;46439;51.164;13.572;2022-08-19T08:15:46;99522.42;;;21.65;77.28
60611;BME280;46439;51.164;13.572;2022-08-19T08:18:15;99527.18;;;21.63;77.21
60611;BME280;46439;51.164;13.572;2022-08-19T08:20:43;99523.52;;;21.61;77.24
60611;BME280;46439;51.164;13.572;2022-08-19T08:23:11;99520.99;;;21.60;77.23
60611;BME280;46439;51.164;13.572;2022-08-19T08:25:57;99512.42;;;21.59;77.44
60611;BME280;46439;51.164;13.572;2022-08-19T08:28:27;99513.51;;;21.57;77.43
60611;BME280;46439;51.164;13.572;2022-08-19T08:30:55;99506.84;;;21.55;77.46
60611;BME280;46439;51.164;13.572;2022-08-19T08:33:26;99510.08;;;21.55;77.48
60611;BME280;46439;51.164;13.572;2022-08-19T08:35:55;99516.23;;;21.55;77.61
60611;BME280;46439;51.164;13.572;2022-08-19T08:38:23;99525.57;;;21.55;77.76
60611;BME280;46439;51.164;13.572;2022-08-19T08:40:56;99533.33;;;21.57;77.72
60611;BME280;46439;51.164;13.572;2022-08-19T08:43:37;99538.84;;;21.58;77.86
60611;BME280;46439;51.164;13.572;2022-08-19T08:46:08;99534.73;;;21.59;77.93
60611;BME280;46439;51.164;13.572;2022-08-19T08:48:44;99532.41;;;21.59;78.03
60611;BME280;46439;51.164;13.572;2022-08-19T08:51:20;99532.92;;;21.60;78.03
60611;BME280;46439;51.164;13.572;2022-08-19T08:53:52;99538.87;;;21.62;78.21
60611;BME280;46439;51.164;13.572;2022-08-19T08:56:21;99539.77;;;21.63;78.30
60611;BME280;46439;51.164;13.572;2022-08-19T08:58:56;99537.69;;;21.65;78.47
60611;BME280;46439;51.164;13.572;2022-08-19T09:01:26;99537.52;;;21.65;78.47
60611;BME280;46439;51.164;13.572;2022-08-19T09:03:55;99543.30;;;21.67;78.52
60611;BME280;46439;51.164;13.572;2022-08-19T09:06:31;99551.05;;;21.74;78.79
60611;BME280;46439;51.164;13.572;2022-08-19T09:09:04;99555.91;;;21.76;78.86
60611;BME280;46439;51.164;13.572;2022-08-19T09:11:44;99554.92;;;21.77;78.88
60611;BME280;46439;51.164;13.572;2022-08-19T09:14:23;99557.27;;;21.76;78.93
60611;BME280;46439;51.164;13.572;2022-08-19T09:16:59;99556.05;;;21.74;78.88
60611;BME280;46439;51.164;13.572;2022-08-19T09:19:31;99556.36;;;21.78;79.06
60611;BME280;46439;51.164;13.572;2022-08-19T09:22:00;99556.14;;;21.84;79.33
60611;BME280;46439;51.164;13.572;2022-08-19T09:24:29;99555.02;;;21.89;79.51
60611;BME280;46439;51.164;13.572;2022-08-19T09:26:57;99550.64;;;21.92;79.62
60611;BME280;46439;51.164;13.572;2022-08-19T09:29:27;99549.57;;;21.96;79.82
60611;BME280;46439;51.164;13.572;2022-08-19T09:31:55;99553.40;;;22.01;79.97
60611;BME280;46439;51.164;13.572;2022-08-19T09:34:24;99549.09;;;22.06;80.20
60611;BME280;46439;51.164;13.572;2022-08-19T09:36:52;99547.67;;;22.08;80.11
60611;BME280;46439;51.164;13.572;2022-08-19T09:39:23;99546.58;;;22.08;80.01
60611;BME280;46439;51.164;13.572;2022-08-19T09:41:51;99540.91;;;22.08;80.17
60611;BME280;46439;51.164;13.572;2022-08-19T09:44:21;99533.96;;;22.12;80.20
60611;BME280;46439;51.164;13.572;2022-08-19T09:46:49;99526.61;;;22.13;80.10
60611;BME280;46439;51.164;13.572;2022-08-19T09:49:21;99522.77;;;22.17;80.26
60611;BME280;46439;51.164;13.572;2022-08-19T09:51:52;99520.91;;;22.20;80.47
60611;BME280;46439;51.164;13.572;2022-08-19T09:54:24;99518.39;;;22.26;80.35
60611;BME280;46439;51.164;13.572;2022-08-19T09:56:54;99510.56;;;22.31;80.47
60611;BME280;46439;51.164;13.572;2022-08-19T09:59:22;99520.11;;;22.38;80.72
60611;BME280;46439;51.164;13.572;2022-08-19T10:01:51;99518.17;;;22.46;80.93
60611;BME280;46439;51.164;13.572;2022-08-19T10:04:20;99517.94;;;22.55;81.09
60611;BME280;46439;51.164;13.572;2022-08-19T10:06:50;99521.92;;;22.64;81.28
60611;BME280;46439;51.164;13.572;2022-08-19T10:09:19;99529.61;;;22.72;81.10
60611;BME280;46439;51.164;13.572;2022-08-19T10:11:48;99531.71;;;22.75;81.39
60611;BME280;46439;51.164;13.572;2022-08-19T10:14:17;99535.91;;;22.79;81.29
60611;BME280;46439;51.164;13.572;2022-08-19T10:16:49;99534.55;;;22.83;81.41
60611;BME280;46439;51.164;13.572;2022-08-19T10:19:19;99528.12;;;22.87;81.44
60611;BME280;46439;51.164;13.572;2022-08-19T10:21:49;99530.57;;;22.93;81.43
60611;BME280;46439;51.164;13.572;2022-08-19T10:24:18;99533.33;;;22.97;81.67
60611;BME280;46439;51.164;13.572;2022-08-19T10:26:48;99535.23;;;22.96;81.57
60611;BME280;46439;51.164;13.572;2022-08-19T10:29:16;99540.05;;;22.96;81.53
60611;BME280;46439;51.164;13.572;2022-08-19T10:31:45;99539.59;;;22.95;81.42
60611;BME280;46439;51.164;13.572;2022-08-19T10:34:15;99539.91;;;22.92;81.21
60611;BME280;46439;51.164;13.572;2022-08-19T10:36:44;99543.29;;;22.95;81.34
60611;BME280;46439;51.164;13.572;2022-08-19T10:39:12;99551.05;;;22.98;81.41
60611;BME280;46439;51.164;13.572;2022-08-19T10:41:41;99558.77;;;23.01;81.47
60611;BME280;46439;51.164;13.572;2022-08-19T10:44:12;99562.40;;;23.08;81.37
60611;BME280;46439;51.164;13.572;2022-08-19T10:46:44;99564.25;;;23.19;81.65
60611;BME280;46439;51.164;13.572;2022-08-19T10:49:15;99566.80;;;23.30;81.96
60611;BME280;46439;51.164;13.572;2022-08-19T10:51:43;99570.89;;;23.40;82.01
60611;BME280;46439;51.164;13.572;2022-08-19T10:54:31;99570.52;;;23.50;82.28
60611;BME280;46439;51.164;13.572;2022-08-19T10:57:19;99568.44;;;23.51;82.24
60611;BME280;46439;51.164;13.572;2022-08-19T10:59:48;99571.40;;;23.51;82.11
60611;BME280;46439;51.164;13.572;2022-08-19T11:02:16;99575.70;;;23.50;82.20
60611;BME280;46439;51.164;13.572;2022-08-19T11:04:45;99575.15;;;23.52;82.01
60611;BME280;46439;51.164;13.572;2022-08-19T11:07:13;99577.30;;;23.54;82.04
60611;BME280;46439;51.164;13.572;2022-08-19T11:09:42;99579.23;;;23.56;82.00
60611;BME280;46439;51.164;13.572;2022-08-19T11:12:11;99581.49;;;23.57;81.92
60611;BME280;46439;51.164;13.572;2022-08-19T11:14:40;99590.15;;;23.58;82.17
60611;BME280;46439;51.164;13.572;2022-08-19T11:17:09;99588.84;;;23.58;81.89
60611;BME280;46439;51.164;13.572;2022-08-19T11:19:39;99587.95;;;23.57;82.04
60611;BME280;46439;51.164;13.572;2022-08-19T11:22:09;99590.70;;;23.56;81.89
60611;BME280;46439;51.164;13.572;2022-08-19T11:24:37;99591.73;;;23.50;81.78
60611;BME280;46439;51.164;13.572;2022-08-19T11:27:08;99600.38;;;23.46;81.69
60611;BME280;46439;51.164;13.572;2022-08-19T11:29:40;99607.52;;;23.40;81.65
60611;BME280;46439;51.164;13.572;2022-08-19T11:32:10;99612.25;;;23.35;81.43
60611;BME280;46439;51.164;13.572;2022-08-19T11:34:40;99613.30;;;23.31;81.66
60611;BME280;46439;51.164;13.572;2022-08-19T11:37:09;99611.57;;;23.25;81.57
60611;BME280;46439;51.164;13.572;2022-08-19T11:39:38;99612.98;;;23.18;81.42
60611;BME280;46439;51.164;13.572;2022-08-19T11:42:07;99612.57;;;23.11;81.01
60611;BME280;46439;51.164;13.572;2022-08-19T11:44:55;99611.13;;;23.07;81.26
60611;BME280;46439;51.164;13.572;2022-08-19T11:47:24;99615.27;;;23.05;81.41
60611;BME280;46439;51.164;13.572;2022-08-19T11:49:52;99619.73;;;23.03;81.42
60611;BME280;46439;51.164;13.572;2022-08-19T11:52:21;99619.67;;;23.02;81.29
60611;BME280;46439;51.164;13.572;2022-08-19T11:54:49;99617.85;;;23.02;81.42
60611;BME280;46439;51.164;13.572;2022-08-19T11:57:18;99610.39;;;23.04;81.68
60611;BME280;46439;51.164;13.572;2022-08-19T11:59:51;99609.04;;;23.07;81.80
60611;BME280;46439;51.164;13.572;2022-08-19T12:02:20;99605.14;;;23.11;81.79
60611;BME280;46439;51.164;13.572;2022-08-19T12:04:49;99602.23;;;23.16;82.30
60611;BME280;46439;51.164;13.572;2022-08-19T12:07:18;99596.80;;;23.17;82.06
60611;BME280;46439;51.164;13.572;2022-08-19T12:09:46;99602.41;;;23.18;82.12
60611;BME280;46439;51.164;13.572;2022-08-19T12:12:15;99603.67;;;23.18;82.10
60611;BME280;46439;51.164;13.572;2022-08-19T12:14:43;99607.47;;;23.19;82.25
60611;BME280;46439;51.164;13.572;2022-08-19T12:17:12;99607.97;;;23.18;82.23
60611;BME280;46439;51.164;13.572;2022-08-19T12:19:41;99607.20;;;23.16;82.26
60611;BME280;46439;51.164;13.572;2022-08-19T12:22:09;99610.02;;;23.16;82.03
60611;BME280;46439;51.164;13.572;2022-08-19T12:24:38;99613.04;;;23.18;82.28
60611;BME280;46439;51.164;13.572;2022-08-19T12:27:06;99618.77;;;23.19;82.37
60611;BME280;46439;51.164;13.572;2022-08-19T12:29:35;99629.02;;;23.22;82.31
60611;BME280;46439;51.164;13.572;2022-08-19T12:32:03;99638.88;;;23.23;82.50
60611;BME280;46439;51.164;13.572;2022-08-19T12:34:32;99638.27;;;23.25;82.32
60611;BME280;46439;51.164;13.572;2022-08-19T12:37:04;99639.05;;;23.26;82.56
60611;BME280;46439;51.164;13.572;2022-08-19T12:39:37;99641.75;;;23.24;82.28
60611;BME280;46439;51.164;13.572;2022-08-19T12:42:07;99638.81;;;23.19;82.30
60611;BME280;46439;51.164;13.572;2022-08-19T12:44:38;99634.34;;;23.16;82.22
60611;BME280;46439;51.164;13.572;2022-08-19T12:47:08;99632.48;;;23.16;82.27
60611;BME280;46439;51.164;13.572;2022-08-19T12:49:37;99636.11;;;23.19;82.36
60611;BME280;46439;51.164;13.572;2022-08-19T12:52:08;99639.23;;;23.17;82.68
60611;BME280;46439;51.164;13.572;2022-08-19T12:54:37;99638.96;;;23.14;82.48
60611;BME280;46439;51.164;13.572;2022-08-19T12:57:09;99641.05;;;23.12;82.32
60611;BME280;46439;51.164;13.572;2022-08-19T12:59:38;99644.63;;;23.12;82.43
60611;BME280;46439;51.164;13.572;2022-08-19T13:02:08;99643.63;;;23.11;82.50
60611;BME280;46439;51.164;13.572;2022-08-19T13:04:37;99639.45;;;23.10;82.29
60611;BME280;46439;51.164;13.572;2022-08-19T13:07:07;99639.11;;;23.09;82.35